createdAt,value
2018-10-01T00:01:59.128Z,94943.55
2018-10-01T00:04:33.047Z,94947.95
2018-10-01T00:18:57.038Z,94945.68
2018-10-01T00:21:31.243Z,94943.72
2018-10-01T00:23:59.840Z,94947.30
2018-10-01T00:26:28.414Z,94943.72
2018-10-01T00:28:56.890Z,94944.38
2018-10-01T00:31:25.373Z,94946.00
2018-10-01T00:33:53.945Z,94946.48
2018-10-01T00:36:22.509Z,94947.31
2018-10-01T00:38:51.020Z,94951.06
2018-10-01T00:41:20.050Z,94953.51
2018-10-01T00:43:48.505Z,94955.61
2018-10-01T00:46:17.070Z,94961.66
2018-10-01T00:48:45.490Z,94969.98
2018-10-01T00:51:13.977Z,94971.11
2018-10-01T00:53:42.410Z,94972.72
2018-10-01T00:56:10.888Z,94976.13
2018-10-01T00:58:39.366Z,94983.31
2018-10-01T01:01:07.936Z,94978.23
2018-10-01T01:03:36.362Z,94985.98
2018-10-01T01:06:04.817Z,94985.31
2018-10-01T01:08:33.254Z,94988.37
2018-10-01T01:11:02.587Z,94979.05
2018-10-01T01:13:30.996Z,94975.09
2018-10-01T01:15:59.458Z,94977.06
2018-10-01T01:18:27.854Z,94973.25
2018-10-01T01:20:56.366Z,94970.98
2018-10-01T01:23:24.831Z,94975.19
2018-10-01T01:25:53.294Z,94973.40
2018-10-01T01:28:21.733Z,94974.16
2018-10-01T01:30:50.171Z,94971.98
2018-10-01T01:33:19.014Z,94966.23
2018-10-01T01:35:47.463Z,94962.30
2018-10-01T01:38:15.934Z,94963.73
2018-10-01T01:40:44.360Z,94964.73
2018-10-01T01:43:12.850Z,94954.92
2018-10-01T01:45:41.297Z,94956.54
2018-10-01T01:48:09.761Z,94954.22
2018-10-01T01:50:38.182Z,94955.51
2018-10-01T01:53:08.772Z,94953.85
2018-10-01T01:55:37.316Z,94949.09
2018-10-01T01:58:05.809Z,94946.91
2018-10-01T02:00:34.292Z,94944.94
2018-10-01T02:03:02.911Z,94951.15
2018-10-01T02:05:31.370Z,94952.71
2018-10-01T02:07:59.865Z,94953.78
2018-10-01T02:10:28.279Z,94950.53
2018-10-01T02:12:56.717Z,94950.20
2018-10-01T02:15:25.181Z,94955.73
2018-10-01T02:17:53.621Z,94947.90
2018-10-01T02:20:22.134Z,94951.47
2018-10-01T02:22:50.541Z,94944.54
2018-10-01T02:25:18.985Z,94948.27
2018-10-01T02:27:47.405Z,94947.92
2018-10-01T02:30:15.872Z,94949.20
2018-10-01T02:32:44.321Z,94941.72
2018-10-01T02:35:12.857Z,94948.69
2018-10-01T02:37:41.286Z,94940.23
2018-10-01T02:40:09.773Z,94938.26
2018-10-01T02:42:38.181Z,94941.53
2018-10-01T02:45:08.669Z,94939.32
2018-10-01T02:47:37.151Z,94930.54
2018-10-01T02:50:05.782Z,94932.77
2018-10-01T02:52:39.576Z,94927.39
2018-10-01T02:55:08.039Z,94920.23
2018-10-01T02:57:36.443Z,94918.80
2018-10-01T03:00:05.915Z,94922.39
2018-10-01T03:02:34.339Z,94919.13
2018-10-01T03:05:02.954Z,94922.39
2018-10-01T03:07:31.401Z,94921.73
2018-10-01T03:09:59.833Z,94915.88
2018-10-01T03:12:28.291Z,94917.70
2018-10-01T03:14:56.738Z,94907.59
2018-10-01T03:17:25.226Z,94908.73
2018-10-01T03:19:53.677Z,94902.37
2018-10-01T03:22:22.147Z,94912.65
2018-10-01T03:24:50.574Z,94908.58
2018-10-01T03:27:19.163Z,94906.08
2018-10-01T03:29:47.578Z,94902.98
2018-10-01T03:32:16.021Z,94900.83
2018-10-01T03:34:44.438Z,94893.41
2018-10-01T03:37:12.919Z,94898.59
2018-10-01T03:39:41.354Z,94897.16
2018-10-01T03:42:09.829Z,94896.55
2018-10-01T03:44:38.238Z,94886.63
2018-10-01T03:47:07.490Z,94891.33
2018-10-01T03:49:35.894Z,94892.53
2018-10-01T03:52:04.390Z,94893.57
2018-10-01T03:54:32.833Z,94893.22
2018-10-01T03:57:01.375Z,94891.44
2018-10-01T03:59:30.698Z,94902.56
2018-10-01T04:01:59.167Z,94893.86
2018-10-01T04:04:27.594Z,94898.73
2018-10-01T04:06:56.066Z,94893.57
2018-10-01T04:09:24.534Z,94900.38
2018-10-01T04:11:52.970Z,94902.99
2018-10-01T04:14:21.437Z,94901.02
2018-10-01T04:16:49.865Z,94904.45
2018-10-01T04:19:18.355Z,94905.25
2018-10-01T04:21:46.797Z,94901.31
2018-10-01T04:24:15.233Z,94902.52
2018-10-01T04:26:43.646Z,94903.66
2018-10-01T04:29:13.598Z,94901.87
2018-10-01T04:31:42.414Z,94905.20
2018-10-01T04:34:10.899Z,94902.09
2018-10-01T04:36:39.370Z,94896.20
2018-10-01T04:39:10.409Z,94896.84
2018-10-01T04:41:39.142Z,94904.96
2018-10-01T04:44:07.686Z,94906.16
2018-10-01T04:46:36.978Z,94909.35
2018-10-01T04:49:05.490Z,94908.21
2018-10-01T04:51:33.923Z,94910.55
2018-10-01T04:54:02.930Z,94910.20
2018-10-01T04:56:31.414Z,94908.79
2018-10-01T04:58:59.917Z,94911.53
2018-10-01T05:01:28.385Z,94908.31
2018-10-01T05:03:56.798Z,94913.69
2018-10-01T05:06:25.242Z,94911.27
2018-10-01T05:08:53.668Z,94912.56
2018-10-01T05:11:22.114Z,94918.13
2018-10-01T05:13:50.585Z,94919.09
2018-10-01T05:16:19.031Z,94914.98
2018-10-01T05:18:47.486Z,94918.11
2018-10-01T05:21:15.974Z,94918.42
2018-10-01T05:23:44.398Z,94922.16
2018-10-01T05:26:12.851Z,94928.03
2018-10-01T05:28:41.314Z,94923.34
2018-10-01T05:31:09.814Z,94923.25
2018-10-01T05:33:38.226Z,94924.50
2018-10-01T05:36:06.705Z,94920.44
2018-10-01T05:38:35.169Z,94924.83
2018-10-01T05:41:05.290Z,94915.89
2018-10-01T05:43:33.724Z,94925.59
2018-10-01T05:46:02.370Z,94929.53
2018-10-01T05:48:30.909Z,94924.13
2018-10-01T05:50:59.374Z,94922.13
2018-10-01T05:53:27.891Z,94929.78
2018-10-01T05:55:56.398Z,94930.11
2018-10-01T05:58:24.852Z,94934.66
2018-10-01T06:00:53.317Z,94940.16
2018-10-01T06:03:21.932Z,94939.33
2018-10-01T06:05:51.390Z,94951.31
2018-10-01T06:08:19.878Z,94954.28
2018-10-01T06:10:51.345Z,94962.03
2018-10-01T06:13:19.913Z,94962.34
2018-10-01T06:15:48.353Z,94954.30
2018-10-01T06:18:20.872Z,94960.50
2018-10-01T06:20:49.602Z,94964.22
2018-10-01T06:23:21.002Z,94973.53
2018-10-01T06:25:49.440Z,94974.61
2018-10-01T06:28:18.001Z,94982.62
2018-10-01T06:30:52.754Z,94976.83
2018-10-01T06:33:23.416Z,94984.88
2018-10-01T06:35:51.855Z,94982.00
2018-10-01T06:38:20.313Z,94995.22
2018-10-01T06:40:49.418Z,94994.39
2018-10-01T06:43:17.862Z,94991.95
2018-10-01T06:45:46.290Z,94999.25
2018-10-01T06:48:14.737Z,95002.69
2018-10-01T06:50:43.139Z,95005.77
2018-10-01T06:53:11.706Z,95001.38
2018-10-01T06:55:40.118Z,95007.19
2018-10-01T06:58:08.514Z,95002.05
2018-10-01T07:00:36.981Z,95011.57
2018-10-01T07:03:07.597Z,95015.72
2018-10-01T07:05:36.097Z,95016.34
2018-10-01T07:08:04.421Z,95015.28
2018-10-01T07:10:33.137Z,95017.92
2018-10-01T07:13:01.632Z,95030.40
2018-10-01T07:15:30.062Z,95028.59
2018-10-01T07:17:58.441Z,95025.73
2018-10-01T07:20:26.857Z,95027.62
2018-10-01T07:22:55.395Z,95037.53
2018-10-01T07:25:24.550Z,95038.36
2018-10-01T07:27:52.983Z,95044.08
2018-10-01T07:30:21.393Z,95040.58
2018-10-01T07:32:49.785Z,95052.58
2018-10-01T07:35:18.297Z,95052.47
2018-10-01T07:37:47.525Z,95050.73
2018-10-01T07:40:15.970Z,95061.94
2018-10-01T07:42:44.366Z,95064.90
2018-10-01T07:45:15.538Z,95064.90
2018-10-01T07:47:44.014Z,95066.25
2018-10-01T07:50:13.879Z,95070.28
2018-10-01T07:52:42.377Z,95076.27
2018-10-01T07:55:10.855Z,95081.48
2018-10-01T07:57:39.373Z,95085.86
2018-10-01T08:00:08.285Z,95085.11
2018-10-01T08:02:36.552Z,95087.99
2018-10-01T08:05:04.971Z,95095.66
2018-10-01T08:07:33.410Z,95096.88
2018-10-01T08:10:01.891Z,95101.73
2018-10-01T08:12:30.691Z,95103.56
2018-10-01T08:14:59.119Z,95111.23
2018-10-01T08:17:27.557Z,95111.03
2018-10-01T08:19:56.638Z,95110.02
2018-10-01T08:22:25.180Z,95119.61
2018-10-01T08:24:53.747Z,95122.17
2018-10-01T08:27:22.154Z,95125.64
2018-10-01T08:29:50.700Z,95129.55
2018-10-01T08:32:19.161Z,95133.71
2018-10-01T08:34:49.842Z,95131.58
2018-10-01T08:37:18.270Z,95131.53
2018-10-01T08:39:49.244Z,95137.12
2018-10-01T08:42:18.634Z,95135.49
2018-10-01T08:44:47.122Z,95141.83
2018-10-01T08:47:17.569Z,95139.84
2018-10-01T08:49:58.123Z,95149.25
2018-10-01T08:52:33.236Z,95143.78
2018-10-01T08:55:02.746Z,95152.16
2018-10-01T08:57:31.578Z,95155.79
2018-10-01T09:00:01.973Z,95154.34
2018-10-01T09:02:30.383Z,95159.84
2018-10-01T09:04:58.876Z,95165.37
2018-10-01T09:07:27.281Z,95168.03
2018-10-01T09:09:56.071Z,95171.00
2018-10-01T09:12:24.458Z,95170.73
2018-10-01T09:14:52.920Z,95168.48
2018-10-01T09:17:23.207Z,95178.20
2018-10-01T09:19:51.678Z,95181.75
2018-10-01T09:22:20.145Z,95179.41
2018-10-01T09:24:48.574Z,95183.17
2018-10-01T09:27:18.379Z,95184.14
2018-10-01T09:29:59.846Z,95186.45
2018-10-01T09:32:29.295Z,95190.50
2018-10-01T09:35:00.635Z,95185.79
2018-10-01T09:37:31.301Z,95190.12
2018-10-01T09:39:59.901Z,95186.28
2018-10-01T09:42:28.334Z,95195.98
2018-10-01T09:44:56.776Z,95191.53
2018-10-01T09:47:25.286Z,95204.02
2018-10-01T09:49:53.680Z,95207.37
2018-10-01T09:52:22.250Z,95209.69
2018-10-01T09:54:50.604Z,95216.91
2018-10-01T09:57:19.029Z,95216.19
2018-10-01T09:59:47.482Z,95211.61
2018-10-01T10:02:15.989Z,95219.88
2018-10-01T10:04:44.365Z,95225.75
2018-10-01T10:07:12.804Z,95227.59
2018-10-01T10:09:41.533Z,95233.33
2018-10-01T10:12:10.161Z,95229.67
2018-10-01T10:14:38.970Z,95231.83
2018-10-01T10:17:07.357Z,95238.94
2018-10-01T10:19:35.717Z,95234.35
2018-10-01T10:22:04.191Z,95228.55
2018-10-01T10:24:32.565Z,95232.06
2018-10-01T10:27:01.045Z,95237.92
2018-10-01T10:29:29.581Z,95243.20
2018-10-01T10:31:58.072Z,95249.88
2018-10-01T10:34:26.465Z,95249.12
2018-10-01T10:36:55.857Z,95241.82
2018-10-01T10:39:26.733Z,95247.52
2018-10-01T10:41:56.493Z,95254.02
2018-10-01T10:44:24.958Z,95261.56
2018-10-01T10:46:53.436Z,95260.57
2018-10-01T10:49:22.034Z,95270.05
2018-10-01T10:51:50.461Z,95273.87
2018-10-01T10:54:18.969Z,95270.14
2018-10-01T10:56:47.404Z,95276.91
2018-10-01T10:59:15.833Z,95275.16
2018-10-01T11:01:44.336Z,95274.87
2018-10-01T11:04:12.845Z,95278.45
2018-10-01T11:06:43.342Z,95276.41
2018-10-01T11:09:12.673Z,95268.84
2018-10-01T11:11:41.143Z,95269.61
2018-10-01T11:14:11.067Z,95272.93
2018-10-01T11:16:43.230Z,95272.45
2018-10-01T11:19:14.104Z,95268.45
2018-10-01T11:21:44.439Z,95274.13
2018-10-01T11:24:15.651Z,95267.73
2018-10-01T11:26:45.433Z,95263.86
2018-10-01T11:29:23.121Z,95272.50
2018-10-01T11:31:52.483Z,95265.38
2018-10-01T11:34:20.943Z,95270.13
2018-10-01T11:36:53.225Z,95274.92
2018-10-01T11:39:26.624Z,95264.55
2018-10-01T11:41:56.009Z,95267.66
2018-10-01T11:44:28.822Z,95266.98
2018-10-01T11:46:58.007Z,95263.56
2018-10-01T11:49:26.620Z,95273.14
2018-10-01T11:51:59.076Z,95266.89
2018-10-01T11:54:28.692Z,95273.45
2018-10-01T11:57:00.260Z,95260.34
2018-10-01T11:59:33.193Z,95262.71
2018-10-01T12:02:02.144Z,95266.46
2018-10-01T12:04:32.982Z,95271.62
2018-10-01T12:07:03.180Z,95270.84
2018-10-01T12:09:34.960Z,95267.37
2018-10-01T12:12:03.654Z,95270.52
2018-10-01T12:14:32.786Z,95283.67
2018-10-01T12:17:03.120Z,95281.53
2018-10-01T12:19:33.192Z,95277.56
2018-10-01T12:22:03.027Z,95288.06
2018-10-01T12:24:34.692Z,95285.66
2018-10-01T12:27:04.593Z,95292.56
2018-10-01T12:29:32.972Z,95286.48
2018-10-01T12:32:01.477Z,95283.27
2018-10-01T12:34:30.253Z,95282.50
2018-10-01T12:36:58.685Z,95293.25
2018-10-01T12:39:28.935Z,95292.75
2018-10-01T12:42:01.554Z,95296.98
2018-10-01T12:44:29.974Z,95290.59
2018-10-01T12:46:58.537Z,95303.77
2018-10-01T12:49:26.899Z,95296.02
2018-10-01T12:51:55.303Z,95293.34
2018-10-01T12:54:23.741Z,95289.53
2018-10-01T12:56:52.250Z,95280.63
2018-10-01T12:59:20.747Z,95288.28
2018-10-01T13:01:49.293Z,95286.93
2018-10-01T13:04:17.727Z,95290.41
2018-10-01T13:06:47.119Z,95292.59
2018-10-01T13:09:15.552Z,95279.10
2018-10-01T13:11:44.009Z,95284.20
2018-10-01T13:14:12.561Z,95286.05
2018-10-01T13:16:41.168Z,95289.59
2018-10-01T13:19:10.538Z,95279.23
2018-10-01T13:21:39.022Z,95288.63
2018-10-01T13:24:07.796Z,95293.10
2018-10-01T13:26:37.518Z,95291.80
2018-10-01T13:29:06.212Z,95300.47
2018-10-01T13:31:35.835Z,95297.41
2018-10-01T13:34:09.957Z,95295.46
2018-10-01T13:36:38.525Z,95300.68
2018-10-01T13:39:08.986Z,95311.23
2018-10-01T13:41:37.536Z,95314.25
2018-10-01T13:44:05.965Z,95307.73
2018-10-01T13:46:34.414Z,95305.42
2018-10-01T13:49:03.494Z,95313.98
2018-10-01T13:51:32.049Z,95308.41
2018-10-01T13:54:00.688Z,95317.74
2018-10-01T13:56:29.193Z,95322.69
2018-10-01T13:58:57.587Z,95313.23
2018-10-01T14:01:26.129Z,95331.80
2018-10-01T14:03:54.842Z,95328.45
2018-10-01T14:06:23.313Z,95325.23
2018-10-01T14:08:51.749Z,95328.99
2018-10-01T14:11:20.959Z,95335.10
2018-10-01T14:13:49.696Z,95336.19
2018-10-01T14:16:22.062Z,95344.83
2018-10-01T14:18:50.742Z,95343.23
2018-10-01T14:21:19.281Z,95349.97
2018-10-01T14:23:49.555Z,95356.94
2018-10-01T14:26:18.085Z,95352.10
2018-10-01T14:28:46.670Z,95361.10
2018-10-01T14:31:15.158Z,95358.79
2018-10-01T14:33:43.959Z,95358.06
2018-10-01T14:36:12.505Z,95362.73
2018-10-01T14:38:40.938Z,95364.28
2018-10-01T14:41:09.851Z,95363.12
2018-10-01T14:43:38.280Z,95364.68
2018-10-01T14:46:08.278Z,95382.02
2018-10-01T14:48:38.632Z,95379.81
2018-10-01T14:51:08.384Z,95388.02
2018-10-01T14:53:36.867Z,95391.02
2018-10-01T14:56:06.271Z,95391.52
2018-10-01T14:58:35.052Z,95393.30
2018-10-01T15:01:03.730Z,95395.70
2018-10-01T15:03:32.264Z,95401.19
2018-10-01T15:06:00.702Z,95402.58
2018-10-01T15:08:30.249Z,95406.23
2018-10-01T15:10:58.758Z,95410.02
2018-10-01T15:13:27.187Z,95413.12
2018-10-01T15:15:55.777Z,95409.55
2018-10-01T15:18:24.318Z,95414.14
2018-10-01T15:20:52.882Z,95420.26
2018-10-01T15:23:22.015Z,95423.83
2018-10-01T15:25:50.478Z,95416.27
2018-10-01T15:28:18.980Z,95434.26
2018-10-01T15:30:47.469Z,95431.28
2018-10-01T15:33:15.987Z,95435.77
2018-10-01T15:35:44.439Z,95435.00
2018-10-01T15:38:19.542Z,95444.73
2018-10-01T15:40:48.158Z,95445.66
2018-10-01T15:43:16.565Z,95445.09
2018-10-01T15:45:47.217Z,95442.83
2018-10-01T15:48:15.652Z,95446.78
2018-10-01T15:50:44.537Z,95450.09
2018-10-01T15:53:14.786Z,95452.83
2018-10-01T15:55:43.304Z,95464.69
2018-10-01T15:58:11.989Z,95465.89
2018-10-01T16:00:41.862Z,95471.56
2018-10-01T16:03:13.310Z,95481.63
2018-10-01T16:05:42.795Z,95482.70
2018-10-01T16:08:13.182Z,95484.38
2018-10-01T16:10:43.191Z,95490.83
2018-10-01T16:13:13.629Z,95486.88
2018-10-01T16:15:45.160Z,95484.61
2018-10-01T16:18:14.772Z,95491.66
2018-10-01T16:20:44.290Z,95489.05
2018-10-01T16:23:15.878Z,95490.08
2018-10-01T16:25:49.920Z,95493.65
2018-10-01T16:28:22.493Z,95492.34
2018-10-01T16:30:55.120Z,95497.78
2018-10-01T16:33:26.210Z,95503.68
2018-10-01T16:36:01.030Z,95496.48
2018-10-01T16:38:29.812Z,95496.02
2018-10-01T16:40:59.264Z,95505.45
2018-10-01T16:43:27.883Z,95513.98
2018-10-01T16:45:57.959Z,95509.52
2018-10-01T16:48:26.645Z,95515.44
2018-10-01T16:50:55.209Z,95522.17
2018-10-01T16:53:23.737Z,95526.50
2018-10-01T16:55:54.117Z,95525.58
2018-10-01T16:58:24.446Z,95536.56
2018-10-01T17:00:57.060Z,95533.14
2018-10-01T17:03:27.211Z,95543.53
2018-10-01T17:05:59.077Z,95540.34
2018-10-01T17:08:37.198Z,95559.46
2018-10-01T17:11:06.214Z,95558.16
2018-10-01T17:13:39.264Z,95557.13
2018-10-01T17:16:07.779Z,95568.94
2018-10-01T17:18:38.582Z,95572.58
2018-10-01T17:21:07.110Z,95567.73
2018-10-01T17:23:37.877Z,95577.08
2018-10-01T17:26:06.470Z,95571.41
2018-10-01T17:28:36.034Z,95584.28
2018-10-01T17:31:05.872Z,95579.46
2018-10-01T17:33:35.627Z,95587.48
2018-10-01T17:36:04.338Z,95589.97
2018-10-01T17:38:32.794Z,95590.20
2018-10-01T17:41:01.259Z,95594.10
2018-10-01T17:43:30.809Z,95597.88
2018-10-01T17:45:59.269Z,95596.09
2018-10-01T17:48:29.006Z,95588.66
2018-10-01T17:50:57.742Z,95595.99
2018-10-01T17:53:26.205Z,95593.39
2018-10-01T17:55:54.645Z,95605.06
2018-10-01T17:58:24.281Z,95608.52
2018-10-01T18:00:52.881Z,95612.51
2018-10-01T18:03:21.921Z,95608.72
2018-10-01T18:05:50.445Z,95605.77
2018-10-01T18:08:18.850Z,95613.34
2018-10-01T18:10:47.325Z,95612.75
2018-10-01T18:13:16.061Z,95618.16
2018-10-01T18:15:44.751Z,95620.05
2018-10-01T18:18:13.245Z,95617.95
2018-10-01T18:20:41.818Z,95619.25
2018-10-01T18:23:11.037Z,95615.46
2018-10-01T18:25:39.621Z,95623.85
2018-10-01T18:28:08.056Z,95627.63
2018-10-01T18:30:37.189Z,95622.41
2018-10-01T18:33:05.889Z,95626.44
2018-10-01T18:35:34.334Z,95629.12
2018-10-01T18:38:03.309Z,95636.82
2018-10-01T18:40:31.778Z,95638.00
2018-10-01T18:43:00.191Z,95638.94
2018-10-01T18:45:28.647Z,95633.25
2018-10-01T18:47:57.137Z,95646.12
2018-10-01T18:50:27.637Z,95642.83
2018-10-01T18:52:56.966Z,95642.92
2018-10-01T18:55:25.434Z,95645.27
2018-10-01T18:57:53.899Z,95645.39
2018-10-01T19:00:23.138Z,95647.03
2018-10-01T19:02:53.537Z,95657.08
2018-10-01T19:05:21.993Z,95655.53
2018-10-01T19:07:50.520Z,95648.82
2018-10-01T19:10:24.038Z,95662.73
2018-10-01T19:12:53.763Z,95670.73
2018-10-01T19:15:22.468Z,95659.77
2018-10-01T19:17:51.014Z,95663.04
2018-10-01T19:20:19.552Z,95658.44
2018-10-01T19:22:49.592Z,95666.30
2018-10-01T19:25:18.192Z,95668.09
2018-10-01T19:27:46.665Z,95670.78
2018-10-01T19:30:17.699Z,95677.17
2018-10-01T19:32:46.897Z,95679.77
2018-10-01T19:35:17.758Z,95673.75
2018-10-01T19:37:46.382Z,95675.72
2018-10-01T19:40:16.821Z,95680.57
2018-10-01T19:42:45.209Z,95678.39
2018-10-01T19:45:13.768Z,95684.20
2018-10-01T19:47:42.133Z,95688.35
2018-10-01T19:50:10.594Z,95691.32
2018-10-01T19:52:39.026Z,95688.81
2018-10-01T19:55:08.227Z,95695.55
2018-10-01T19:57:36.738Z,95691.98
2018-10-01T20:00:05.893Z,95696.59
2018-10-01T20:02:34.562Z,95696.93
2018-10-01T20:05:03.154Z,95698.68
2018-10-01T20:07:31.626Z,95699.38
2018-10-01T20:10:00.061Z,95702.30
2018-10-01T20:12:28.539Z,95701.01
2018-10-01T20:14:57.010Z,95697.92
2018-10-01T20:17:25.648Z,95696.20
2018-10-01T20:19:54.934Z,95700.68
2018-10-01T20:22:23.541Z,95690.90
2018-10-01T20:24:55.558Z,95695.83
2018-10-01T20:27:24.155Z,95698.09
2018-10-01T20:29:52.671Z,95696.49
2018-10-01T20:32:21.050Z,95697.58
2018-10-01T20:34:49.709Z,95696.30
2018-10-01T20:37:18.151Z,95702.06
2018-10-01T20:39:46.657Z,95702.78
2018-10-01T20:42:15.153Z,95705.16
2018-10-01T20:44:43.538Z,95710.22
2018-10-01T20:47:12.070Z,95710.04
2018-10-01T20:49:41.581Z,95710.37
2018-10-01T20:52:10.807Z,95710.81
2018-10-01T20:54:39.230Z,95711.08
2018-10-01T20:57:07.633Z,95708.49
2018-10-01T20:59:36.119Z,95709.05
2018-10-01T21:02:04.563Z,95704.80
2018-10-01T21:04:32.993Z,95706.21
2018-10-01T21:07:01.397Z,95707.97
2018-10-01T21:09:29.890Z,95715.86
2018-10-01T21:11:58.332Z,95716.78
2018-10-01T21:14:26.790Z,95720.47
2018-10-01T21:16:55.238Z,95719.63
2018-10-01T21:19:23.706Z,95721.13
2018-10-01T21:21:52.173Z,95725.02
2018-10-01T21:24:20.643Z,95732.46
2018-10-01T21:26:49.111Z,95733.17
2018-10-01T21:29:17.578Z,95738.25
2018-10-01T21:31:46.095Z,95738.80
2018-10-01T21:34:14.569Z,95739.54
2018-10-01T21:36:43.114Z,95742.71
2018-10-01T21:39:39.884Z,95742.92
2018-10-01T21:42:10.757Z,95731.55
2018-10-01T21:44:39.205Z,95734.27
2018-10-01T21:47:07.665Z,95733.36
2018-10-01T21:49:39.687Z,95734.75
2018-10-01T21:52:10.810Z,95734.75
2018-10-01T21:54:39.407Z,95742.84
2018-10-01T21:57:07.916Z,95739.13
2018-10-01T21:59:38.850Z,95740.33
2018-10-01T22:02:07.336Z,95740.66
2018-10-01T22:04:35.847Z,95735.01
2018-10-01T22:07:04.302Z,95728.91
2018-10-01T22:09:32.779Z,95735.13
2018-10-01T22:12:01.983Z,95736.88
2018-10-01T22:14:30.423Z,95724.87
2018-10-01T22:16:58.981Z,95735.38
2018-10-01T22:19:27.475Z,95739.36
2018-10-01T22:21:55.951Z,95744.86
2018-10-01T22:24:24.453Z,95751.45
2018-10-01T22:26:52.890Z,95745.67
2018-10-01T22:29:21.338Z,95746.47
2018-10-01T22:31:49.855Z,95755.22
2018-10-01T22:34:18.346Z,95747.05
2018-10-01T22:36:46.852Z,95748.66
2018-10-01T22:39:15.375Z,95749.00
2018-10-01T22:41:43.917Z,95758.59
2018-10-01T22:44:12.329Z,95765.77
2018-10-01T22:46:40.870Z,95756.37
2018-10-01T22:49:09.305Z,95757.38
2018-10-01T22:51:37.975Z,95762.87
2018-10-01T22:54:06.442Z,95754.53
2018-10-01T22:56:34.875Z,95759.83
2018-10-01T22:59:03.997Z,95753.55
2018-10-01T23:01:34.027Z,95762.16
2018-10-01T23:04:02.971Z,95761.63
2018-10-01T23:06:31.409Z,95760.62
2018-10-01T23:08:59.874Z,95763.09
2018-10-01T23:11:29.114Z,95763.29
2018-10-01T23:13:57.551Z,95764.50
2018-10-01T23:16:25.974Z,95765.56
2018-10-01T23:18:54.426Z,95768.80
2018-10-01T23:21:22.846Z,95772.31
2018-10-01T23:23:51.285Z,95775.62
2018-10-01T23:26:19.681Z,95770.26
2018-10-01T23:28:48.109Z,95777.84
2018-10-01T23:31:17.119Z,95774.45
2018-10-01T23:33:45.610Z,95781.80
2018-10-01T23:36:14.007Z,95779.06
2018-10-01T23:38:42.446Z,95772.33
2018-10-01T23:41:10.909Z,95776.70
2018-10-01T23:43:39.361Z,95779.36
2018-10-01T23:46:08.062Z,95779.20
2018-10-01T23:48:36.478Z,95781.83
2018-10-01T23:51:05.060Z,95778.37
2018-10-01T23:53:33.501Z,95784.13
2018-10-01T23:56:01.937Z,95789.50
2018-10-01T23:58:31.305Z,95791.78
